createdAt,value
2018-12-18T00:00:10.808Z,7.20
2018-12-18T00:02:38.997Z,7.20
2018-12-18T00:05:13.073Z,7.60
2018-12-18T00:07:41.210Z,7.50
2018-12-18T00:10:09.494Z,7.30
2018-12-18T00:12:37.552Z,7.10
2018-12-18T00:15:06.402Z,6.90
2018-12-18T00:17:34.506Z,7.20
2018-12-18T00:20:02.702Z,7.10
2018-12-18T00:22:30.998Z,7.30
2018-12-18T00:24:59.079Z,7.10
2018-12-18T00:27:27.220Z,7.20
2018-12-18T00:29:55.286Z,7.10
2018-12-18T00:32:23.342Z,7.10
2018-12-18T00:34:51.752Z,7.40
2018-12-18T00:37:19.940Z,7.40
2018-12-18T00:39:48.127Z,7.40
2018-12-18T00:42:16.346Z,7.10
2018-12-18T00:44:44.394Z,7.30
2018-12-18T00:47:12.496Z,7.30
2018-12-18T00:49:40.587Z,7.40
2018-12-18T00:52:08.830Z,7.20
2018-12-18T00:54:36.952Z,7.20
2018-12-18T00:57:05.062Z,7.00
2018-12-18T00:59:33.223Z,7.30
2018-12-18T01:02:01.319Z,7.30
2018-12-18T01:04:29.512Z,7.20
2018-12-18T01:06:57.975Z,6.90
2018-12-18T01:09:26.087Z,7.00
2018-12-18T01:11:54.258Z,6.90
2018-12-18T01:14:22.524Z,7.00
2018-12-18T01:16:50.671Z,7.20
2018-12-18T01:19:18.807Z,7.10
2018-12-18T01:21:47.338Z,7.00
2018-12-18T01:24:15.398Z,6.90
2018-12-18T01:26:43.423Z,7.00
2018-12-18T01:29:11.442Z,6.60
2018-12-18T01:31:39.536Z,6.80
2018-12-18T01:34:07.582Z,6.70
2018-12-18T01:36:35.591Z,6.60
2018-12-18T01:39:05.448Z,6.70
2018-12-18T01:41:33.610Z,6.70
2018-12-18T01:44:01.686Z,6.60
2018-12-18T01:46:29.798Z,6.70
2018-12-18T01:48:57.862Z,6.60
2018-12-18T01:51:26.133Z,6.60
2018-12-18T01:53:54.134Z,7.00
2018-12-18T01:56:22.158Z,6.70
2018-12-18T01:58:50.182Z,6.70
2018-12-18T02:01:18.217Z,6.80
2018-12-18T02:03:46.253Z,6.80
2018-12-18T02:06:14.402Z,6.30
2018-12-18T02:08:42.410Z,6.90
2018-12-18T02:11:10.562Z,7.00
2018-12-18T02:13:38.566Z,7.00
2018-12-18T02:16:08.615Z,7.20
2018-12-18T02:18:36.903Z,7.20
2018-12-18T02:21:05.038Z,7.00
2018-12-18T02:23:33.073Z,7.40
2018-12-18T02:26:01.069Z,7.40
2018-12-18T02:28:29.094Z,7.70
2018-12-18T02:30:57.243Z,7.40
2018-12-18T02:33:25.384Z,7.60
2018-12-18T02:35:53.475Z,7.60
2018-12-18T02:38:21.558Z,7.00
2018-12-18T02:40:49.571Z,7.70
2018-12-18T02:43:17.599Z,7.50
2018-12-18T02:45:45.638Z,7.50
2018-12-18T02:48:13.700Z,7.60
2018-12-18T02:50:41.721Z,7.90
2018-12-18T02:53:09.734Z,7.80
2018-12-18T02:55:37.750Z,7.80
2018-12-18T02:58:05.768Z,7.80
2018-12-18T03:00:33.884Z,7.90
2018-12-18T03:03:02.067Z,7.80
2018-12-18T03:05:30.123Z,7.70
2018-12-18T03:07:58.257Z,7.90
2018-12-18T03:10:26.294Z,8.10
2018-12-18T03:12:54.390Z,7.90
2018-12-18T03:15:22.464Z,7.80
2018-12-18T03:17:50.529Z,8.00
2018-12-18T03:20:18.711Z,7.90
2018-12-18T03:22:46.726Z,7.70
2018-12-18T03:25:14.777Z,7.40
2018-12-18T03:27:42.811Z,7.40
2018-12-18T03:30:11.064Z,7.60
2018-12-18T03:32:44.314Z,7.80
2018-12-18T03:35:12.449Z,7.30
2018-12-18T03:37:40.512Z,7.30
2018-12-18T03:40:08.723Z,7.20
2018-12-18T03:42:37.029Z,7.10
2018-12-18T03:45:06.319Z,7.20
2018-12-18T03:47:34.524Z,7.20
2018-12-18T03:50:02.694Z,7.40
2018-12-18T03:52:30.925Z,7.60
2018-12-18T03:54:58.965Z,7.70
2018-12-18T03:57:27.050Z,7.50
2018-12-18T03:59:55.152Z,7.60
2018-12-18T04:02:23.288Z,7.50
2018-12-18T04:04:51.338Z,7.30
2018-12-18T04:07:19.405Z,7.10
2018-12-18T04:09:47.443Z,7.00
2018-12-18T04:12:22.398Z,7.00
2018-12-18T04:14:51.281Z,7.00
2018-12-18T04:17:19.345Z,7.00
2018-12-18T04:19:47.458Z,6.90
2018-12-18T04:22:15.668Z,6.90
2018-12-18T04:24:43.676Z,6.70
2018-12-18T04:27:11.693Z,6.90
2018-12-18T04:29:40.093Z,7.00
2018-12-18T04:32:08.146Z,6.60
2018-12-18T04:34:42.715Z,6.50
2018-12-18T04:37:06.379Z,6.70
2018-12-18T04:39:34.422Z,6.80
2018-12-18T04:42:02.454Z,7.00
2018-12-18T04:44:30.557Z,6.70
2018-12-18T04:46:58.564Z,6.70
2018-12-18T04:49:26.677Z,6.70
2018-12-18T04:51:54.656Z,6.40
2018-12-18T04:54:23.256Z,6.70
2018-12-18T04:56:51.282Z,6.70
2018-12-18T04:59:19.476Z,6.90
2018-12-18T05:01:47.520Z,6.80
2018-12-18T05:04:15.562Z,7.00
2018-12-18T05:06:43.651Z,7.10
2018-12-18T05:09:11.694Z,6.90
2018-12-18T05:11:39.758Z,7.30
2018-12-18T05:14:07.784Z,7.20
2018-12-18T05:16:35.824Z,7.30
2018-12-18T05:19:03.887Z,7.10
2018-12-18T05:21:32.047Z,7.30
2018-12-18T05:24:00.194Z,7.50
2018-12-18T05:26:28.174Z,7.30
2018-12-18T05:28:56.268Z,7.50
2018-12-18T05:31:24.324Z,7.50
2018-12-18T05:33:52.376Z,7.80
2018-12-18T05:36:20.457Z,7.70
2018-12-18T05:38:48.943Z,7.80
2018-12-18T05:41:17.110Z,7.80
2018-12-18T05:43:45.099Z,7.90
2018-12-18T05:46:13.186Z,8.00
2018-12-18T05:48:41.234Z,8.20
2018-12-18T05:51:09.243Z,8.20
2018-12-18T05:53:37.559Z,7.90
2018-12-18T05:56:05.555Z,8.00
2018-12-18T05:58:33.541Z,8.10
2018-12-18T06:01:01.579Z,8.20
2018-12-18T06:03:29.706Z,8.10
2018-12-18T06:05:57.699Z,8.00
2018-12-18T06:08:25.737Z,7.60
2018-12-18T06:10:53.834Z,8.20
2018-12-18T06:13:21.888Z,8.20
2018-12-18T06:15:50.200Z,8.00
2018-12-18T06:18:18.237Z,7.40
2018-12-18T06:20:46.308Z,7.20
2018-12-18T06:23:14.368Z,7.50
2018-12-18T06:25:42.421Z,7.60
2018-12-18T06:28:10.426Z,7.80
2018-12-18T06:30:38.427Z,7.20
2018-12-18T06:33:06.825Z,6.80
2018-12-18T06:35:35.641Z,6.70
2018-12-18T06:38:03.665Z,6.50
2018-12-18T06:40:31.731Z,6.90
2018-12-18T06:42:59.734Z,6.60
2018-12-18T06:45:27.769Z,6.90
2018-12-18T06:47:55.787Z,6.70
2018-12-18T06:50:23.950Z,7.10
2018-12-18T06:52:51.959Z,6.70
2018-12-18T06:55:20.028Z,6.90
2018-12-18T06:57:48.136Z,7.00
2018-12-18T07:00:16.165Z,7.30
2018-12-18T07:02:44.181Z,7.50
2018-12-18T07:05:16.675Z,7.40
2018-12-18T07:07:42.283Z,7.00
2018-12-18T07:10:10.311Z,7.00
2018-12-18T07:12:38.439Z,7.40
2018-12-18T07:15:06.590Z,7.40
2018-12-18T07:17:34.725Z,7.00
2018-12-18T07:20:03.094Z,6.60
2018-12-18T07:22:31.138Z,7.20
2018-12-18T07:24:59.243Z,7.20
2018-12-18T07:27:27.383Z,7.60
2018-12-18T07:29:55.415Z,7.30
2018-12-18T07:32:23.386Z,7.10
2018-12-18T07:34:51.532Z,6.90
2018-12-18T07:37:19.599Z,7.10
2018-12-18T07:39:47.722Z,7.10
2018-12-18T07:42:15.847Z,7.60
2018-12-18T07:44:43.875Z,6.50
2018-12-18T07:47:11.910Z,6.60
2018-12-18T07:49:40.061Z,7.30
2018-12-18T07:52:08.146Z,6.90
2018-12-18T07:54:36.185Z,6.80
2018-12-18T07:57:04.270Z,7.00
2018-12-18T07:59:32.329Z,7.30
2018-12-18T08:02:00.457Z,7.10
2018-12-18T08:04:28.514Z,7.20
2018-12-18T08:06:56.575Z,7.00
2018-12-18T08:09:24.695Z,7.30
2018-12-18T08:11:52.833Z,7.00
2018-12-18T08:14:20.910Z,7.10
2018-12-18T08:16:48.907Z,6.90
2018-12-18T08:19:17.059Z,6.60
2018-12-18T08:21:45.217Z,7.30
2018-12-18T08:24:13.332Z,7.30
2018-12-18T08:26:41.695Z,7.20
2018-12-18T08:29:09.760Z,6.90
2018-12-18T08:31:38.411Z,6.50
2018-12-18T08:34:06.592Z,7.50
2018-12-18T08:36:34.762Z,7.50
2018-12-18T08:39:04.118Z,6.50
2018-12-18T08:41:32.196Z,7.20
2018-12-18T08:44:00.414Z,7.40
2018-12-18T08:46:28.486Z,7.50
2018-12-18T08:48:56.565Z,7.00
2018-12-18T08:51:24.632Z,6.80
2018-12-18T08:53:52.700Z,6.90
2018-12-18T08:56:20.791Z,6.90
2018-12-18T08:58:48.858Z,6.50
2018-12-18T09:01:16.914Z,6.40
2018-12-18T09:03:45.016Z,6.60
2018-12-18T09:06:13.059Z,6.90
2018-12-18T09:08:41.083Z,7.30
2018-12-18T09:11:09.242Z,7.40
2018-12-18T09:13:37.246Z,7.60
2018-12-18T09:16:09.982Z,7.70
2018-12-18T09:18:38.014Z,8.00
2018-12-18T09:21:06.090Z,8.40
2018-12-18T09:23:34.155Z,8.30
2018-12-18T09:26:02.245Z,8.10
2018-12-18T09:28:30.315Z,7.90
2018-12-18T09:30:58.388Z,7.80
2018-12-18T09:33:26.512Z,8.60
2018-12-18T09:35:54.744Z,8.90
2018-12-18T09:38:28.587Z,9.60
2018-12-18T09:41:02.359Z,8.70
2018-12-18T09:43:36.062Z,8.70
2018-12-18T09:46:04.272Z,9.80
2018-12-18T09:48:32.340Z,9.20
2018-12-18T09:51:00.384Z,8.50
2018-12-18T09:53:28.433Z,10.00
2018-12-18T09:55:56.608Z,10.30
2018-12-18T09:58:24.649Z,10.60
2018-12-18T10:00:52.676Z,10.50
2018-12-18T10:03:20.747Z,10.50
2018-12-18T10:05:48.841Z,10.20
2018-12-18T10:08:16.883Z,10.10
2018-12-18T10:10:44.907Z,10.40
2018-12-18T10:13:12.981Z,10.20
2018-12-18T10:15:41.147Z,10.40
2018-12-18T10:18:09.311Z,10.20
2018-12-18T10:20:37.443Z,10.20
2018-12-18T10:23:05.579Z,10.40
2018-12-18T10:25:33.623Z,10.50
2018-12-18T10:28:01.751Z,10.80
2018-12-18T10:30:29.825Z,11.00
2018-12-18T10:32:58.062Z,11.50
2018-12-18T10:35:26.119Z,11.70
2018-12-18T10:37:54.210Z,11.70
2018-12-18T10:40:23.424Z,11.50
2018-12-18T10:42:51.503Z,11.60
2018-12-18T10:45:20.961Z,11.40
2018-12-18T10:47:49.328Z,11.60
2018-12-18T10:50:17.431Z,11.40
2018-12-18T10:52:45.554Z,11.70
2018-12-18T10:55:13.604Z,10.90
2018-12-18T10:57:41.661Z,10.50
2018-12-18T11:00:18.371Z,9.70
2018-12-18T11:02:46.375Z,10.00
2018-12-18T11:05:15.159Z,10.10
2018-12-18T11:07:43.277Z,10.20
2018-12-18T11:10:11.314Z,10.10
2018-12-18T11:12:40.034Z,10.20
2018-12-18T11:15:09.029Z,10.20
2018-12-18T11:17:37.195Z,10.10
2018-12-18T11:20:06.704Z,10.50
2018-12-18T11:22:34.775Z,10.20
2018-12-18T11:25:03.230Z,9.70
2018-12-18T11:27:31.394Z,9.90
2018-12-18T11:29:59.472Z,10.50
2018-12-18T11:32:32.996Z,10.40
2018-12-18T11:34:57.688Z,10.80
2018-12-18T11:37:25.730Z,11.00
2018-12-18T11:39:53.909Z,11.00
2018-12-18T11:42:21.970Z,11.00
2018-12-18T11:44:50.087Z,10.60
2018-12-18T11:47:19.290Z,10.90
2018-12-18T11:49:47.331Z,10.90
2018-12-18T11:52:15.341Z,10.50
2018-12-18T11:54:43.487Z,10.20
2018-12-18T11:57:11.565Z,9.70
2018-12-18T11:59:39.711Z,10.80
2018-12-18T12:02:07.734Z,11.00
2018-12-18T12:04:35.717Z,11.20
2018-12-18T12:07:03.751Z,11.10
2018-12-18T12:09:31.810Z,10.30
2018-12-18T12:11:59.862Z,10.40
2018-12-18T12:14:27.930Z,10.60
2018-12-18T12:16:56.056Z,10.40
2018-12-18T12:19:24.331Z,10.60
2018-12-18T12:21:52.407Z,11.00
2018-12-18T12:24:21.275Z,10.80
2018-12-18T12:26:51.622Z,10.50
2018-12-18T12:29:19.681Z,10.60
2018-12-18T12:31:47.975Z,10.80
2018-12-18T12:34:16.142Z,10.50
2018-12-18T12:36:44.267Z,10.70
2018-12-18T12:39:12.337Z,11.10
2018-12-18T12:41:40.353Z,11.20
2018-12-18T12:44:08.395Z,11.40
2018-12-18T12:46:36.456Z,11.10
2018-12-18T12:49:09.386Z,10.50
2018-12-18T12:51:37.795Z,10.50
2018-12-18T12:54:05.855Z,10.70
2018-12-18T12:56:33.988Z,10.60
2018-12-18T12:59:02.115Z,10.60
2018-12-18T13:01:30.178Z,10.00
2018-12-18T13:03:58.334Z,10.30
2018-12-18T13:06:26.402Z,10.10
2018-12-18T13:08:54.551Z,10.80
2018-12-18T13:11:22.636Z,10.40
2018-12-18T13:13:50.703Z,10.80
2018-12-18T13:16:18.869Z,11.00
2018-12-18T13:18:47.370Z,11.10
2018-12-18T13:21:15.473Z,10.50
2018-12-18T13:23:43.610Z,10.20
2018-12-18T13:26:11.843Z,9.80
2018-12-18T13:28:39.904Z,9.50
2018-12-18T13:31:07.959Z,10.10
2018-12-18T13:33:36.067Z,10.60
2018-12-18T13:36:04.734Z,10.70
2018-12-18T13:38:32.902Z,11.10
2018-12-18T13:41:00.988Z,10.80
2018-12-18T13:43:29.036Z,11.00
2018-12-18T13:45:57.163Z,10.80
2018-12-18T13:48:25.231Z,10.40
2018-12-18T13:50:53.449Z,10.10
2018-12-18T13:53:21.489Z,10.80
2018-12-18T13:55:49.710Z,10.20
2018-12-18T13:58:17.818Z,10.10
2018-12-18T14:00:45.902Z,10.10
2018-12-18T14:03:14.004Z,10.10
2018-12-18T14:05:42.173Z,10.00
2018-12-18T14:08:10.270Z,9.90
2018-12-18T14:10:38.378Z,10.10
2018-12-18T14:13:06.530Z,9.40
2018-12-18T14:15:34.701Z,9.50
2018-12-18T14:18:02.892Z,9.50
2018-12-18T14:20:31.111Z,9.70
2018-12-18T14:22:59.175Z,9.70
2018-12-18T14:25:27.222Z,9.80
2018-12-18T14:27:55.369Z,9.60
2018-12-18T14:30:23.505Z,9.80
2018-12-18T14:32:51.566Z,9.30
2018-12-18T14:35:19.682Z,9.30
2018-12-18T14:37:47.794Z,9.60
2018-12-18T14:40:15.926Z,9.30
2018-12-18T14:42:44.024Z,9.30
2018-12-18T14:45:12.068Z,9.40
2018-12-18T14:47:40.364Z,9.40
2018-12-18T14:50:08.672Z,9.40
2018-12-18T14:52:37.002Z,8.80
2018-12-18T14:55:05.344Z,8.40
2018-12-18T14:57:33.997Z,8.90
2018-12-18T15:00:02.060Z,8.70
2018-12-18T15:02:30.324Z,8.40
2018-12-18T15:04:58.418Z,8.70
2018-12-18T15:07:26.513Z,8.50
2018-12-18T15:09:54.725Z,8.50
2018-12-18T15:12:23.082Z,8.90
2018-12-18T15:14:51.203Z,8.80
2018-12-18T15:17:19.543Z,8.50
2018-12-18T15:19:47.944Z,8.80
2018-12-18T15:22:16.266Z,8.20
2018-12-18T15:24:44.507Z,8.30
2018-12-18T15:27:12.732Z,8.20
2018-12-18T15:29:40.874Z,8.40
2018-12-18T15:32:09.252Z,8.30
2018-12-18T15:34:37.450Z,8.30
2018-12-18T15:37:09.501Z,8.40
2018-12-18T15:39:35.953Z,8.40
2018-12-18T15:42:04.812Z,8.60
2018-12-18T15:44:33.108Z,8.20
2018-12-18T15:47:01.243Z,8.20
2018-12-18T15:49:29.454Z,8.50
2018-12-18T15:51:58.453Z,8.60
2018-12-18T15:54:26.551Z,8.10
2018-12-18T15:56:54.852Z,8.10
2018-12-18T15:59:23.019Z,8.00
2018-12-18T16:01:51.180Z,7.90
2018-12-18T16:04:19.351Z,8.20
2018-12-18T16:06:47.795Z,8.50
2018-12-18T16:09:15.968Z,8.20
2018-12-18T16:11:44.149Z,8.50
2018-12-18T16:14:12.367Z,8.40
2018-12-18T16:16:40.511Z,8.10
2018-12-18T16:19:09.006Z,7.50
2018-12-18T16:21:37.343Z,7.70
2018-12-18T16:24:05.530Z,7.30
2018-12-18T16:26:33.733Z,7.10
2018-12-18T16:29:01.886Z,7.50
2018-12-18T16:31:30.167Z,7.60
2018-12-18T16:33:58.442Z,7.80
2018-12-18T16:36:26.597Z,7.90
2018-12-18T16:38:54.821Z,7.80
2018-12-18T16:41:23.127Z,7.80
2018-12-18T16:43:51.322Z,7.90
2018-12-18T16:46:19.427Z,7.70
2018-12-18T16:48:47.594Z,7.80
2018-12-18T16:51:15.659Z,7.50
2018-12-18T16:53:43.875Z,7.30
2018-12-18T16:56:12.163Z,7.10
2018-12-18T16:58:40.310Z,7.10
2018-12-18T17:01:08.415Z,7.20
2018-12-18T17:03:36.804Z,7.40
2018-12-18T17:06:04.984Z,7.50
2018-12-18T17:08:33.136Z,7.50
2018-12-18T17:11:01.364Z,7.40
2018-12-18T17:13:29.656Z,7.20
2018-12-18T17:15:57.927Z,7.40
2018-12-18T17:18:26.133Z,7.30
2018-12-18T17:20:54.273Z,7.30
2018-12-18T17:23:22.624Z,7.30
2018-12-18T17:25:51.024Z,7.20
2018-12-18T17:28:19.127Z,7.10
2018-12-18T17:30:47.276Z,7.10
2018-12-18T17:33:15.438Z,7.00
2018-12-18T17:35:43.630Z,6.80
2018-12-18T17:38:12.240Z,6.80
2018-12-18T17:40:40.675Z,6.90
2018-12-18T17:43:08.874Z,6.90
2018-12-18T17:45:37.123Z,6.90
2018-12-18T17:48:05.540Z,7.00
2018-12-18T17:50:34.069Z,6.80
2018-12-18T17:53:02.299Z,7.00
2018-12-18T17:55:30.435Z,6.90
2018-12-18T17:57:58.610Z,6.70
2018-12-18T18:00:26.918Z,6.70
2018-12-18T18:02:55.095Z,6.80
2018-12-18T18:05:23.280Z,6.90
2018-12-18T18:07:51.639Z,6.90
2018-12-18T18:10:19.910Z,6.60
2018-12-18T18:12:48.181Z,6.30
2018-12-18T18:15:16.480Z,6.20
2018-12-18T18:17:44.718Z,5.70
2018-12-18T18:20:13.259Z,6.00
2018-12-18T18:22:41.887Z,6.00
2018-12-18T18:25:10.131Z,6.10
2018-12-18T18:27:38.430Z,6.20
2018-12-18T18:30:07.482Z,6.00
2018-12-18T18:32:35.745Z,6.00
2018-12-18T18:35:04.950Z,6.00
2018-12-18T18:37:33.313Z,5.70
2018-12-18T18:40:01.625Z,5.90
2018-12-18T18:42:29.857Z,5.70
2018-12-18T18:44:58.112Z,5.50
2018-12-18T18:47:26.275Z,5.30
2018-12-18T18:49:54.537Z,5.00
2018-12-18T18:52:22.749Z,5.40
2018-12-18T18:54:51.066Z,5.50
2018-12-18T18:57:19.204Z,5.50
2018-12-18T18:59:48.132Z,4.90
2018-12-18T19:02:16.428Z,5.20
2018-12-18T19:04:44.642Z,5.10
2018-12-18T19:07:12.771Z,5.10
2018-12-18T19:09:40.957Z,5.20
2018-12-18T19:12:09.061Z,5.30
2018-12-18T19:14:37.251Z,5.10
2018-12-18T19:17:05.371Z,5.30
2018-12-18T19:19:33.655Z,5.30
2018-12-18T19:22:06.254Z,5.50
2018-12-18T19:24:34.598Z,5.80
2018-12-18T19:27:02.786Z,5.80
2018-12-18T19:29:30.942Z,5.50
2018-12-18T19:31:59.173Z,5.40
2018-12-18T19:34:27.285Z,5.70
2018-12-18T19:36:56.016Z,5.80
2018-12-18T19:39:24.255Z,5.50
2018-12-18T19:41:52.481Z,5.10
2018-12-18T19:44:20.670Z,5.70
2018-12-18T19:46:48.854Z,6.50
2018-12-18T19:49:17.281Z,6.30
2018-12-18T19:51:45.647Z,6.50
2018-12-18T19:54:13.990Z,6.00
2018-12-18T19:56:42.272Z,6.80
2018-12-18T19:59:10.901Z,7.00
2018-12-18T20:01:39.528Z,6.60
2018-12-18T20:04:07.812Z,6.90
2018-12-18T20:06:36.525Z,7.30
2018-12-18T20:09:07.418Z,7.00
2018-12-18T20:11:36.130Z,6.90
2018-12-18T20:14:04.919Z,7.10
2018-12-18T20:16:33.350Z,7.20
2018-12-18T20:19:01.690Z,6.60
2018-12-18T20:21:30.247Z,6.30
2018-12-18T20:23:59.725Z,6.40
2018-12-18T20:26:28.354Z,6.60
2018-12-18T20:28:57.289Z,6.30
2018-12-18T20:31:25.517Z,6.50
2018-12-18T20:33:53.821Z,6.30
2018-12-18T20:36:22.446Z,6.20
2018-12-18T20:38:51.334Z,6.20
2018-12-18T20:41:19.912Z,6.20
2018-12-18T20:43:50.499Z,6.20
2018-12-18T20:46:18.796Z,5.90
2018-12-18T20:48:47.066Z,6.30
2018-12-18T20:51:15.570Z,5.80
2018-12-18T20:53:44.196Z,5.50
2018-12-18T20:56:12.826Z,5.50
2018-12-18T20:58:42.717Z,5.10
2018-12-18T21:01:10.972Z,5.00
2018-12-18T21:03:39.393Z,5.60
2018-12-18T21:06:08.085Z,5.40
2018-12-18T21:08:36.416Z,5.30
2018-12-18T21:11:04.909Z,5.10
2018-12-18T21:13:33.576Z,5.20
2018-12-18T21:16:03.296Z,5.50
2018-12-18T21:18:31.954Z,5.50
2018-12-18T21:21:00.360Z,5.80
2018-12-18T21:23:28.630Z,5.60
2018-12-18T21:25:58.197Z,5.40
2018-12-18T21:28:26.821Z,5.70
2018-12-18T21:30:55.123Z,5.70
2018-12-18T21:33:23.411Z,5.20
2018-12-18T21:35:52.937Z,5.30
2018-12-18T21:38:21.277Z,5.50
2018-12-18T21:40:49.758Z,5.40
2018-12-18T21:43:18.905Z,5.50
2018-12-18T21:45:47.339Z,5.70
2018-12-18T21:48:15.634Z,5.40
2018-12-18T21:50:43.870Z,5.50
2018-12-18T21:53:13.908Z,5.50
2018-12-18T21:55:42.105Z,5.50
2018-12-18T21:58:10.465Z,5.60
2018-12-18T22:00:38.769Z,5.60
2018-12-18T22:03:07.038Z,5.40
2018-12-18T22:05:35.531Z,5.30
2018-12-18T22:08:04.040Z,5.10
2018-12-18T22:10:32.255Z,5.10
2018-12-18T22:13:01.014Z,5.30
2018-12-18T22:15:29.935Z,5.10
2018-12-18T22:17:58.142Z,5.10
2018-12-18T22:20:26.601Z,5.30
2018-12-18T22:22:55.713Z,4.90
2018-12-18T22:25:24.115Z,4.90
2018-12-18T22:27:52.676Z,4.90
2018-12-18T22:30:20.948Z,5.10
2018-12-18T22:32:49.084Z,4.90
2018-12-18T22:35:17.551Z,4.90
2018-12-18T22:37:45.968Z,5.20
2018-12-18T22:40:14.137Z,4.70
2018-12-18T22:42:49.705Z,5.10
2018-12-18T22:45:18.553Z,5.30
2018-12-18T22:47:46.676Z,5.30
2018-12-18T22:50:15.014Z,5.50
2018-12-18T22:52:43.110Z,5.60
2018-12-18T22:55:11.335Z,5.80
2018-12-18T22:57:39.475Z,5.20
2018-12-18T23:00:11.835Z,5.40
2018-12-18T23:05:28.615Z,5.20
2018-12-18T23:07:56.701Z,5.30
2018-12-18T23:10:24.847Z,4.70
2018-12-18T23:12:52.981Z,5.10
2018-12-18T23:15:21.114Z,5.20
2018-12-18T23:17:49.293Z,4.90
2018-12-18T23:20:17.644Z,4.80
2018-12-18T23:22:45.732Z,4.70
2018-12-18T23:25:13.947Z,4.70
2018-12-18T23:27:43.738Z,4.30
2018-12-18T23:30:11.892Z,4.60
2018-12-18T23:32:39.980Z,4.90
2018-12-18T23:35:08.138Z,4.70
2018-12-18T23:37:36.205Z,4.90
2018-12-18T23:40:04.670Z,4.50
2018-12-18T23:42:32.979Z,5.00
2018-12-18T23:45:01.572Z,5.00
2018-12-18T23:47:29.647Z,4.90
2018-12-18T23:49:58.336Z,5.40
2018-12-18T23:52:26.575Z,5.40
2018-12-18T23:54:54.670Z,5.50
2018-12-18T23:57:25.212Z,5.70
2018-12-18T23:59:53.369Z,5.30
